Time;durP1;ratioP1;P1;durP2;ratioP2;P2;SDS_P1;SDS_P2;PMS_P1;PMS_P2;Temp;Humidity;BMP_temperature;BMP_pressure;BME280_temperature;BME280_humidity;BME280_pressure;Samples;Min_cycle;Max_cycle;Signal;HPM_P1;HPM_P2
2020/12/27 00:10:15;;;;;;;24.12;11.95;;;;;;;0.08;100.00;100422.06;10618318;83;21139;-92
2020/12/27 00:25:20;;;;;;;27.87;11.97;;;;;;;0.05;100.00;100429.91;10567709;83;21563;-90
2020/12/27 00:40:26;;;;;;;32.93;13.57;;;;;;;0.13;100.00;100409.81;10565559;83;21072;-91
2020/12/27 00:55:31;;;;;;;28.37;12.27;;;;;;;0.14;100.00;100387.41;10543897;83;21164;-90
2020/12/27 01:10:36;;;;;;;39.65;17.23;;;;;;;0.31;100.00;100357.01;10596678;83;21064;-88
2020/12/27 01:25:43;;;;;;;27.37;12.93;;;;;;;0.27;100.00;100346.44;10624817;83;21041;-88
2020/12/27 01:40:47;;;;;;;31.23;14.33;;;;;;;0.23;100.00;100329.42;10544811;84;21030;-91
2020/12/27 01:55:51;;;;;;;27.52;11.88;;;;;;;0.19;100.00;100318.39;10498309;84;21069;-89
2020/12/27 02:10:56;;;;;;;28.40;11.80;;;;;;;0.12;100.00;100290.73;10496650;84;21165;-86
2020/12/27 02:26:00;;;;;;;22.82;10.75;;;;;;;0.10;100.00;100306.72;10504684;83;21208;-90
2020/12/27 02:41:12;;;;;;;24.47;11.70;;;;;;;0.05;100.00;100298.34;10374423;84;21049;-90
2020/12/27 02:56:16;;;;;;;25.68;11.65;;;;;;;0.04;100.00;100275.20;10462553;84;21184;-90
2020/12/27 03:11:21;;;;;;;23.10;10.85;;;;;;;-0.09;100.00;100238.80;10415707;86;21590;-90
2020/12/27 03:26:25;;;;;;;30.20;11.70;;;;;;;-0.29;100.00;100210.88;10415802;85;21167;-90
2020/12/27 03:41:30;;;;;;;21.77;9.90;;;;;;;-0.39;100.00;100209.61;10312510;86;21041;-90
2020/12/27 03:56:34;;;;;;;20.72;9.48;;;;;;;-0.36;100.00;100195.28;10415944;85;21092;-90
2020/12/27 04:11:39;;;;;;;20.17;10.13;;;;;;;-0.46;100.00;100166.52;10415849;85;21184;-89
2020/12/27 04:26:43;;;;;;;19.82;9.23;;;;;;;-0.59;100.00;100164.91;10446802;84;21091;-90
2020/12/27 04:41:48;;;;;;;17.48;8.78;;;;;;;-0.61;100.00;100143.98;10538837;84;21084;-87
2020/12/27 04:56:53;;;;;;;18.95;7.92;;;;;;;-0.56;100.00;100148.02;10583914;84;21052;-90
2020/12/27 05:11:58;;;;;;;17.27;7.97;;;;;;;-0.74;100.00;100144.53;10481543;85;21064;-90
2020/12/27 05:27:05;;;;;;;19.90;9.65;;;;;;;-0.70;100.00;100142.63;10476475;83;21056;-89
2020/12/27 05:42:10;;;;;;;17.77;8.95;;;;;;;-0.80;100.00;100128.50;10510739;84;21143;-90
2020/12/27 05:57:16;;;;;;;19.70;10.90;;;;;;;-0.94;100.00;100120.06;10470548;83;21177;-92
2020/12/27 06:12:22;;;;;;;19.87;9.33;;;;;;;-0.97;100.00;100113.30;10478855;83;21225;-92
2020/12/27 06:27:29;;;;;;;20.47;9.83;;;;;;;-1.09;100.00;100114.66;10543670;83;21124;-94
2020/12/27 06:42:33;;;;;;;21.42;9.98;;;;;;;-1.06;100.00;100117.56;10459090;84;21172;-84
2020/12/27 06:57:46;;;;;;;19.37;9.73;;;;;;;-1.10;100.00;100081.26;10429234;84;21152;-86
2020/12/27 07:12:51;;;;;;;18.35;9.78;;;;;;;-1.08;100.00;100047.25;10423769;84;21148;-87
2020/12/27 07:27:59;;;;;;;246.85;62.48;;;;;;;-1.12;100.00;100032.41;10420731;83;21161;-88
2020/12/27 07:43:10;;;;;;;151.00;62.83;;;;;;;-0.89;100.00;100029.27;10476053;83;21242;-87
2020/12/27 07:58:14;;;;;;;194.32;53.75;;;;;;;-0.71;100.00;100026.33;10528580;83;21102;-87
2020/12/27 08:13:22;;;;;;;84.35;41.48;;;;;;;-0.68;100.00;100008.14;10562126;83;21141;-86
2020/12/27 08:28:28;;;;;;;25.80;14.68;;;;;;;-0.63;100.00;99992.02;10571671;83;21214;-87
2020/12/27 08:44:13;;;;;;;35.78;16.48;;;;;;;-0.56;100.00;99968.91;10509600;84;21491;-89
2020/12/27 08:59:18;;;;;;;45.05;21.85;;;;;;;-0.42;100.00;99953.25;10202197;85;21538;-87
2020/12/27 09:14:43;;;;;;;67.05;29.57;;;;;;;-0.08;100.00;99940.87;10226297;83;21573;-87
2020/12/27 09:30:00;;;;;;;38.58;18.15;;;;;;;0.23;100.00;99928.19;10392132;83;21060;-87
2020/12/27 09:45:21;;;;;;;40.78;18.67;;;;;;;0.44;100.00;99900.44;10434623;84;21084;-87
2020/12/27 10:00:25;;;;;;;41.88;18.62;;;;;;;0.54;100.00;99869.80;10417930;84;21575;-88
2020/12/27 10:15:31;;;;;;;40.23;19.95;;;;;;;0.48;100.00;99843.87;10452967;84;21084;-89
2020/12/27 10:30:35;;;;;;;97.42;28.60;;;;;;;0.48;100.00;99842.58;10437047;83;21092;-89
2020/12/27 10:45:53;;;;;;;133.18;48.98;;;;;;;0.81;100.00;99815.38;10553959;83;21230;-91
2020/12/27 11:01:00;;;;;;;53.00;24.47;;;;;;;0.81;100.00;99815.38;10559551;83;21088;-88
2020/12/27 11:16:04;;;;;;;45.50;18.87;;;;;;;0.89;100.00;99799.47;10468754;84;21159;-89
2020/12/27 11:31:10;;;;;;;64.17;28.05;;;;;;;1.27;98.36;99743.97;10511295;83;21182;-89
2020/12/27 11:46:16;;;;;;;46.63;25.08;;;;;;;1.45;94.80;99717.05;10528747;83;21474;-89
2020/12/27 12:01:20;;;;;;;31.30;15.43;;;;;;;1.70;92.60;99714.73;10523271;83;21116;-88
2020/12/27 12:16:24;;;;;;;46.88;21.65;;;;;;;1.60;91.67;99697.66;10494676;84;21152;-87
2020/12/27 12:31:31;;;;;;;52.00;33.28;;;;;;;2.02;88.67;99664.08;10507231;83;21477;-86
2020/12/27 12:46:36;;;;;;;37.75;15.45;;;;;;;1.83;86.99;99563.89;10499353;83;21099;-87
2020/12/27 13:01:47;;;;;;;49.58;18.35;;;;;;;1.83;86.99;99563.89;10490783;83;21028;-86
2020/12/27 13:16:58;;;;;;;70.10;28.40;;;;;;;2.58;84.58;99584.54;10296733;86;21625;-87
2020/12/27 13:32:11;;;;;;;48.90;16.37;;;;;;;3.42;75.40;99562.07;10519784;83;21080;-86
2020/12/27 13:47:18;;;;;;;23.30;13.38;;;;;;;3.46;72.72;99527.23;10562817;83;21072;-86
2020/12/27 14:02:51;;;;;;;18.48;9.53;;;;;;;2.06;76.23;99521.94;10442132;83;21151;-86
2020/12/27 14:18:00;;;;;;;23.47;10.15;;;;;;;1.16;81.09;99481.02;10480593;83;21480;-86
2020/12/27 14:33:39;;;;;;;34.35;12.65;;;;;;;0.80;83.05;99497.84;10436980;83;21163;-85
2020/12/27 14:48:46;;;;;;;51.95;17.30;;;;;;;0.61;85.10;99467.96;10362011;84;21064;-86
2020/12/27 15:04:17;;;;;;;27.25;11.22;;;;;;;-0.26;88.24;99462.27;10160052;86;21061;-85
2020/12/27 15:20:26;;;;;;;112.12;38.90;;;;;;;-0.60;92.19;99428.06;9864919;85;21096;-87
2020/12/27 15:35:57;;;;;;;79.47;25.75;;;;;;;-0.65;93.50;99410.27;10459174;83;21944;-83
2020/12/27 15:51:03;;;;;;;99.13;28.32;;;;;;;-0.13;95.14;99387.61;10575404;83;21040;-82
2020/12/27 16:06:07;;;;;;;104.58;30.70;;;;;;;-0.25;96.71;99346.16;10588019;83;21092;-83
2020/12/27 16:21:14;;;;;;;75.70;24.45;;;;;;;-0.32;98.15;99319.07;10590054;83;20985;-82
2020/12/27 16:36:19;;;;;;;64.40;20.55;;;;;;;-0.30;98.86;99292.76;10555455;83;21041;-84
2020/12/27 16:51:24;;;;;;;121.47;42.78;;;;;;;-0.45;98.99;99291.92;10582556;83;21569;-82
2020/12/27 17:06:28;;;;;;;52.33;17.95;;;;;;;-0.55;98.17;99305.78;10536741;83;21591;-82
2020/12/27 17:21:32;;;;;;;59.13;19.17;;;;;;;-0.39;95.33;99284.28;10560482;83;21016;-82
2020/12/27 17:36:37;;;;;;;37.25;14.98;;;;;;;-0.76;98.20;99274.81;10564555;83;21103;-82
2020/12/27 17:51:42;;;;;;;36.70;14.73;;;;;;;-0.82;100.00;99246.36;10567817;83;21072;-82
2020/12/27 18:06:47;;;;;;;37.10;16.00;;;;;;;-0.81;100.00;99226.13;10519094;83;21588;-82
2020/12/27 18:21:53;;;;;;;64.60;21.42;;;;;;;-0.88;100.00;99209.39;10566454;83;21064;-83
2020/12/27 18:36:58;;;;;;;57.57;18.63;;;;;;;-0.92;100.00;99195.04;10501977;83;21087;-81
2020/12/27 18:52:04;;;;;;;34.63;15.80;;;;;;;-0.99;100.00;99197.14;10449854;84;21066;-81
2020/12/27 19:07:09;;;;;;;61.63;24.57;;;;;;;-1.05;100.00;99162.73;10096813;86;21120;-81
2020/12/27 19:22:15;;;;;;;78.50;27.55;;;;;;;-1.03;100.00;99128.70;10386261;84;21108;-81
2020/12/27 19:37:21;;;;;;;44.70;18.50;;;;;;;-1.03;100.00;99119.69;10040396;86;21552;-82
2020/12/27 19:52:27;;;;;;;62.27;22.67;;;;;;;-1.09;100.00;99082.27;10204981;86;21096;-83
2020/12/27 20:07:33;;;;;;;39.00;16.10;;;;;;;-0.97;100.00;99082.00;10310457;85;21143;-85
2020/12/27 20:22:37;;;;;;;101.20;38.90;;;;;;;-0.96;100.00;99059.20;10311775;85;21668;-85
2020/12/27 20:37:43;;;;;;;142.47;52.25;;;;;;;-0.91;100.00;99050.75;10421106;83;21103;-85
2020/12/27 20:52:47;;;;;;;86.13;36.10;;;;;;;-0.94;100.00;99014.86;10469854;83;21040;-83
2020/12/27 21:07:52;;;;;;;35.35;16.80;;;;;;;-1.01;100.00;99000.25;10496857;84;21495;-84
2020/12/27 21:22:56;;;;;;;33.85;16.02;;;;;;;-0.95;100.00;98991.79;10497515;83;21036;-83
2020/12/27 21:38:01;;;;;;;32.67;14.60;;;;;;;-0.99;100.00;98963.30;10490428;83;21036;-85
2020/12/27 21:53:07;;;;;;;31.50;14.18;;;;;;;-0.80;100.00;98949.65;10487500;83;21552;-83
2020/12/27 22:08:12;;;;;;;34.25;14.87;;;;;;;-0.79;100.00;98907.97;10558755;83;21095;-83
2020/12/27 22:23:17;;;;;;;37.53;15.90;;;;;;;-0.82;100.00;98892.25;10568965;83;21099;-80
2020/12/27 22:38:22;;;;;;;29.18;14.53;;;;;;;-0.77;100.00;98864.94;10502341;83;21254;-81
2020/12/27 22:53:27;;;;;;;30.27;15.85;;;;;;;-0.71;100.00;98836.22;10573468;84;21135;-82
2020/12/27 23:08:32;;;;;;;29.80;13.50;;;;;;;-0.73;100.00;98809.73;10587490;83;21047;-86
2020/12/27 23:23:36;;;;;;;37.42;15.88;;;;;;;-0.34;100.00;98801.60;10625210;83;20997;-87
2020/12/27 23:38:41;;;;;;;30.97;14.05;;;;;;;-0.34;100.00;98780.98;10481321;83;21049;-85
2020/12/27 23:53:46;;;;;;;32.48;15.05;;;;;;;-0.58;100.00;98764.94;10443367;85;21116;-85
